Time,TemperatureF,DewpointF,PressureIn,WindDirection,WindDirectionDegrees,WindSpeedMPH,WindSpeedGustMPH,Humidity,HourlyPrecipIn,Conditions,Clouds,dailyrainin,SoftwareType,DateUTC
2013-01-23 00:06:00,49.1,30.8,30.19,North,-999,-999.0,-999.0,49,-99.99,,,-99.99,,2013-01-23 07:06:00,
2013-01-23 00:12:00,48.2,30.4,30.20,North,-999,-999.0,-999.0,49,-99.99,,,-99.99,,2013-01-23 07:12:00,
2013-01-23 00:18:00,47.4,30.3,30.19,North,-999,-999.0,-999.0,51,-99.99,,,-99.99,,2013-01-23 07:18:00,
2013-01-23 00:24:00,47.2,30.2,30.19,North,-999,-999.0,-999.0,51,-99.99,,,-99.99,,2013-01-23 07:24:00,
2013-01-23 00:30:00,47.4,30.1,30.19,North,-999,-999.0,-999.0,50,-99.99,,,-99.99,,2013-01-23 07:30:00,
2013-01-23 00:36:00,47.2,30.2,30.19,North,-999,-999.0,-999.0,51,-99.99,,,-99.99,,2013-01-23 07:36:00,
2013-01-23 00:42:00,47.0,30.2,30.18,North,-999,-999.0,-999.0,51,-99.99,,,-99.99,,2013-01-23 07:42:00,
2013-01-23 00:48:00,46.4,29.8,30.18,North,-999,-999.0,-999.0,52,-99.99,,,-99.99,,2013-01-23 07:48:00,
2013-01-23 00:54:00,46.3,29.9,30.19,North,-999,-999.0,-999.0,52,-99.99,,,-99.99,,2013-01-23 07:54:00,
2013-01-23 01:00:00,47.7,30.4,30.19,North,-999,-999.0,-999.0,50,-99.99,,,-99.99,,2013-01-23 08:00:00,
2013-01-23 01:06:00,47.7,30.1,30.18,North,-999,-999.0,-999.0,50,-99.99,,,-99.99,,2013-01-23 08:06:00,
2013-01-23 01:12:00,48.4,30.0,30.17,North,-999,-999.0,-999.0,48,-99.99,,,-99.99,,2013-01-23 08:12:00,
2013-01-23 01:18:00,48.8,30.0,30.18,North,-999,-999.0,-999.0,48,-99.99,,,-99.99,,2013-01-23 08:18:00,
2013-01-23 01:24:00,47.9,30.0,30.17,North,-999,-999.0,-999.0,49,-99.99,,,-99.99,,2013-01-23 08:24:00,
2013-01-23 01:30:00,47.7,30.2,30.17,North,-999,-999.0,-999.0,50,-99.99,,,-99.99,,2013-01-23 08:30:00,
2013-01-23 01:36:00,47.5,29.9,30.17,North,-999,-999.0,-999.0,50,-99.99,,,-99.99,,2013-01-23 08:36:00,
2013-01-23 01:42:00,47.6,29.9,30.17,North,-999,-999.0,-999.0,50,-99.99,,,-99.99,,2013-01-23 08:42:00,
2013-01-23 01:48:00,46.7,29.8,30.18,North,-999,-999.0,-999.0,51,-99.99,,,-99.99,,2013-01-23 08:48:00,
2013-01-23 01:54:00,45.9,29.8,30.18,North,-999,-999.0,-999.0,53,-99.99,,,-99.99,,2013-01-23 08:54:00,
2013-01-23 02:00:00,47.1,30.1,30.17,North,-999,-999.0,-999.0,51,-99.99,,,-99.99,,2013-01-23 09:00:00,
2013-01-23 02:06:00,47.9,30.4,30.18,North,-999,-999.0,-999.0,50,-99.99,,,-99.99,,2013-01-23 09:06:00,
2013-01-23 02:12:00,48.0,30.2,30.16,North,-999,-999.0,-999.0,50,-99.99,,,-99.99,,2013-01-23 09:12:00,
2013-01-23 02:18:00,48.3,30.1,30.16,North,-999,-999.0,-999.0,49,-99.99,,,-99.99,,2013-01-23 09:18:00,
2013-01-23 02:24:00,48.3,29.8,30.15,North,-999,-999.0,-999.0,48,-99.99,,,-99.99,,2013-01-23 09:24:00,
2013-01-23 02:30:00,48.7,29.5,30.16,North,-999,-999.0,-999.0,47,-99.99,,,-99.99,,2013-01-23 09:30:00,
2013-01-23 02:36:00,49.1,29.5,30.17,North,-999,-999.0,-999.0,46,-99.99,,,-99.99,,2013-01-23 09:36:00,
2013-01-23 02:42:00,50.0,29.7,30.17,North,-999,-999.0,-999.0,45,-99.99,,,-99.99,,2013-01-23 09:42:00,
2013-01-23 02:48:00,50.2,30.0,30.18,North,-999,-999.0,-999.0,45,-99.99,,,-99.99,,2013-01-23 09:48:00,
2013-01-23 02:54:00,50.7,30.2,30.17,North,-999,-999.0,-999.0,45,-99.99,,,-99.99,,2013-01-23 09:54:00,
2013-01-23 03:00:00,50.6,30.1,30.16,North,-999,-999.0,-999.0,45,-99.99,,,-99.99,,2013-01-23 10:00:00,
2013-01-23 03:06:00,50.4,30.0,30.18,North,-999,-999.0,-999.0,45,-99.99,,,-99.99,,2013-01-23 10:06:00,
2013-01-23 03:12:00,50.3,30.0,30.18,North,-999,-999.0,-999.0,45,-99.99,,,-99.99,,2013-01-23 10:12:00,
2013-01-23 03:18:00,49.8,30.0,30.18,North,-999,-999.0,-999.0,46,-99.99,,,-99.99,,2013-01-23 10:18:00,
2013-01-23 03:24:00,50.6,30.1,30.18,North,-999,-999.0,-999.0,45,-99.99,,,-99.99,,2013-01-23 10:24:00,
2013-01-23 03:30:00,51.0,30.1,30.18,North,-999,-999.0,-999.0,44,-99.99,,,-99.99,,2013-01-23 10:30:00,
2013-01-23 03:36:00,52.4,30.3,30.18,North,-999,-999.0,-999.0,42,-99.99,,,-99.99,,2013-01-23 10:36:00,
2013-01-23 03:42:00,53.7,30.5,30.18,North,-999,-999.0,-999.0,40,-99.99,,,-99.99,,2013-01-23 10:42:00,
2013-01-23 03:48:00,51.8,30.2,30.18,North,-999,-999.0,-999.0,43,-99.99,,,-99.99,,2013-01-23 10:48:00,
2013-01-23 03:54:00,50.2,30.0,30.18,North,-999,-999.0,-999.0,45,-99.99,,,-99.99,,2013-01-23 10:54:00,
2013-01-23 04:00:00,51.1,30.2,30.18,North,-999,-999.0,-999.0,44,-99.99,,,-99.99,,2013-01-23 11:00:00,
2013-01-23 04:06:00,51.8,30.3,30.18,North,-999,-999.0,-999.0,43,-99.99,,,-99.99,,2013-01-23 11:06:00,
2013-01-23 04:12:00,52.0,30.2,30.18,North,-999,-999.0,-999.0,43,-99.99,,,-99.99,,2013-01-23 11:12:00,
2013-01-23 04:18:00,51.9,30.1,30.18,North,-999,-999.0,-999.0,43,-99.99,,,-99.99,,2013-01-23 11:18:00,
2013-01-23 04:24:00,52.1,30.2,30.18,North,-999,-999.0,-999.0,42,-99.99,,,-99.99,,2013-01-23 11:24:00,
2013-01-23 04:30:00,52.3,30.2,30.18,North,-999,-999.0,-999.0,42,-99.99,,,-99.99,,2013-01-23 11:30:00,
2013-01-23 04:36:00,51.7,30.1,30.18,North,-999,-999.0,-999.0,43,-99.99,,,-99.99,,2013-01-23 11:36:00,
2013-01-23 04:42:00,51.2,30.0,30.19,North,-999,-999.0,-999.0,44,-99.99,,,-99.99,,2013-01-23 11:42:00,
2013-01-23 04:48:00,50.9,29.9,30.18,North,-999,-999.0,-999.0,44,-99.99,,,-99.99,,2013-01-23 11:48:00,
2013-01-23 04:54:00,50.3,29.7,30.17,North,-999,-999.0,-999.0,44,-99.99,,,-99.99,,2013-01-23 11:54:00,
2013-01-23 05:00:00,53.2,29.6,30.16,North,-999,-999.0,-999.0,40,-99.99,,,-99.99,,2013-01-23 12:00:00,
2013-01-23 05:06:00,54.7,29.8,30.15,North,-999,-999.0,-999.0,38,-99.99,,,-99.99,,2013-01-23 12:06:00,
2013-01-23 05:12:00,55.6,29.9,30.15,North,-999,-999.0,-999.0,37,-99.99,,,-99.99,,2013-01-23 12:12:00,
2013-01-23 05:18:00,56.2,29.8,30.17,North,-999,-999.0,-999.0,36,-99.99,,,-99.99,,2013-01-23 12:18:00,
2013-01-23 05:24:00,54.0,30.2,30.16,North,-999,-999.0,-999.0,39,-99.99,,,-99.99,,2013-01-23 12:24:00,
2013-01-23 05:30:00,51.1,29.9,30.17,North,-999,-999.0,-999.0,43,-99.99,,,-99.99,,2013-01-23 12:30:00,
2013-01-23 05:36:00,49.0,29.6,30.18,North,-999,-999.0,-999.0,46,-99.99,,,-99.99,,2013-01-23 12:36:00,
2013-01-23 05:42:00,49.7,29.9,30.17,North,-999,-999.0,-999.0,46,-99.99,,,-99.99,,2013-01-23 12:42:00,
2013-01-23 05:48:00,52.4,30.3,30.17,North,-999,-999.0,-999.0,42,-99.99,,,-99.99,,2013-01-23 12:48:00,
2013-01-23 05:54:00,52.9,30.3,30.18,North,-999,-999.0,-999.0,41,-99.99,,,-99.99,,2013-01-23 12:54:00,
2013-01-23 06:00:00,54.3,30.5,30.18,North,-999,-999.0,-999.0,40,-99.99,,,-99.99,,2013-01-23 13:00:00,
2013-01-23 06:06:00,53.7,30.6,30.18,North,-999,-999.0,-999.0,41,-99.99,,,-99.99,,2013-01-23 13:06:00,
2013-01-23 06:12:00,51.8,30.3,30.17,North,-999,-999.0,-999.0,43,-99.99,,,-99.99,,2013-01-23 13:12:00,
2013-01-23 06:18:00,52.0,30.2,30.18,North,-999,-999.0,-999.0,42,-99.99,,,-99.99,,2013-01-23 13:18:00,
2013-01-23 06:24:00,52.7,30.1,30.18,North,-999,-999.0,-999.0,41,-99.99,,,-99.99,,2013-01-23 13:24:00,
2013-01-23 06:30:00,52.3,30.0,30.19,North,-999,-999.0,-999.0,42,-99.99,,,-99.99,,2013-01-23 13:30:00,
2013-01-23 06:36:00,50.5,29.7,30.19,North,-999,-999.0,-999.0,44,-99.99,,,-99.99,,2013-01-23 13:36:00,
2013-01-23 06:42:00,49.8,29.6,30.19,North,-999,-999.0,-999.0,45,-99.99,,,-99.99,,2013-01-23 13:42:00,
2013-01-23 06:48:00,50.1,29.6,30.19,North,-999,-999.0,-999.0,44,-99.99,,,-99.99,,2013-01-23 13:48:00,
2013-01-23 06:54:00,50.8,29.7,30.18,North,-999,-999.0,-999.0,44,-99.99,,,-99.99,,2013-01-23 13:54:00,
2013-01-23 07:00:00,50.5,29.6,30.18,North,-999,-999.0,-999.0,44,-99.99,,,-99.99,,2013-01-23 14:00:00,
2013-01-23 07:06:00,51.6,29.9,30.18,North,-999,-999.0,-999.0,43,-99.99,,,-99.99,,2013-01-23 14:06:00,
2013-01-23 07:12:00,53.3,30.0,30.19,North,-999,-999.0,-999.0,40,-99.99,,,-99.99,,2013-01-23 14:12:00,
2013-01-23 07:18:00,53.3,29.9,30.20,North,-999,-999.0,-999.0,40,-99.99,,,-99.99,,2013-01-23 14:18:00,
2013-01-23 07:24:00,51.1,29.5,30.20,North,-999,-999.0,-999.0,43,-99.99,,,-99.99,,2013-01-23 14:24:00,
2013-01-23 07:30:00,50.2,29.3,30.19,North,-999,-999.0,-999.0,44,-99.99,,,-99.99,,2013-01-23 14:30:00,
2013-01-23 07:36:00,50.1,29.3,30.20,North,-999,-999.0,-999.0,44,-99.99,,,-99.99,,2013-01-23 14:36:00,
2013-01-23 07:42:00,49.5,29.3,30.20,North,-999,-999.0,-999.0,45,-99.99,,,-99.99,,2013-01-23 14:42:00,
2013-01-23 07:48:00,50.1,29.5,30.20,North,-999,-999.0,-999.0,44,-99.99,,,-99.99,,2013-01-23 14:48:00,
2013-01-23 07:54:00,53.9,29.8,30.20,North,-999,-999.0,-999.0,39,-99.99,,,-99.99,,2013-01-23 14:54:00,
2013-01-23 08:00:00,56.0,29.9,30.21,North,-999,-999.0,-999.0,36,-99.99,,,-99.99,,2013-01-23 15:00:00,
2013-01-23 08:06:00,56.5,30.1,30.20,North,-999,-999.0,-999.0,36,-99.99,,,-99.99,,2013-01-23 15:06:00,
2013-01-23 08:12:00,57.4,30.4,30.21,North,-999,-999.0,-999.0,35,-99.99,,,-99.99,,2013-01-23 15:12:00,
2013-01-23 08:18:00,58.5,30.6,30.20,North,-999,-999.0,-999.0,34,-99.99,,,-99.99,,2013-01-23 15:18:00,
2013-01-23 08:24:00,59.6,30.8,30.20,North,-999,-999.0,-999.0,33,-99.99,,,-99.99,,2013-01-23 15:24:00,
2013-01-23 08:30:00,59.2,30.9,30.21,North,-999,-999.0,-999.0,34,-99.99,,,-99.99,,2013-01-23 15:30:00,
2013-01-23 08:36:00,58.3,31.0,30.19,North,-999,-999.0,-999.0,35,-99.99,,,-99.99,,2013-01-23 15:36:00,
2013-01-23 08:42:00,58.3,30.9,30.18,North,-999,-999.0,-999.0,35,-99.99,,,-99.99,,2013-01-23 15:42:00,
2013-01-23 08:48:00,58.0,31.0,30.20,North,-999,-999.0,-999.0,35,-99.99,,,-99.99,,2013-01-23 15:48:00,
2013-01-23 08:54:00,57.7,31.1,30.21,North,-999,-999.0,-999.0,36,-99.99,,,-99.99,,2013-01-23 15:54:00,
2013-01-23 09:00:00,58.2,31.4,30.21,North,-999,-999.0,-999.0,35,-99.99,,,-99.99,,2013-01-23 16:00:00,
2013-01-23 09:06:00,58.2,31.3,30.21,North,-999,-999.0,-999.0,36,-99.99,,,-99.99,,2013-01-23 16:06:00,
2013-01-23 09:12:00,58.3,31.1,30.21,North,-999,-999.0,-999.0,35,-99.99,,,-99.99,,2013-01-23 16:12:00,
2013-01-23 09:18:00,58.4,31.3,30.21,North,-999,-999.0,-999.0,35,-99.99,,,-99.99,,2013-01-23 16:18:00,
2013-01-23 09:24:00,60.0,31.6,30.22,North,-999,-999.0,-999.0,34,-99.99,,,-99.99,,2013-01-23 16:24:00,
2013-01-23 09:30:00,62.1,31.4,30.21,North,-999,-999.0,-999.0,31,-99.99,,,-99.99,,2013-01-23 16:30:00,
2013-01-23 09:36:00,62.3,31.6,30.22,North,-999,-999.0,-999.0,31,-99.99,,,-99.99,,2013-01-23 16:36:00,
2013-01-23 09:42:00,62.5,31.7,30.23,North,-999,-999.0,-999.0,31,-99.99,,,-99.99,,2013-01-23 16:42:00,
2013-01-23 09:48:00,62.2,31.8,30.22,North,-999,-999.0,-999.0,31,-99.99,,,-99.99,,2013-01-23 16:48:00,
2013-01-23 09:54:00,62.2,32.1,30.21,North,-999,-999.0,-999.0,32,-99.99,,,-99.99,,2013-01-23 16:54:00,
2013-01-23 10:00:00,63.0,32.2,30.21,North,-999,-999.0,-999.0,31,-99.99,,,-99.99,,2013-01-23 17:00:00,
2013-01-23 10:06:00,63.8,32.2,30.20,North,-999,-999.0,-999.0,30,-99.99,,,-99.99,,2013-01-23 17:06:00,
2013-01-23 10:12:00,64.4,32.3,30.21,North,-999,-999.0,-999.0,30,-99.99,,,-99.99,,2013-01-23 17:12:00,
2013-01-23 10:18:00,64.7,32.4,30.20,North,-999,-999.0,-999.0,29,-99.99,,,-99.99,,2013-01-23 17:18:00,
2013-01-23 10:24:00,65.2,32.6,30.20,North,-999,-999.0,-999.0,29,-99.99,,,-99.99,,2013-01-23 17:24:00,
2013-01-23 10:30:00,65.7,32.6,30.20,North,-999,-999.0,-999.0,29,-99.99,,,-99.99,,2013-01-23 17:30:00,
2013-01-23 10:36:00,66.9,32.8,30.21,North,-999,-999.0,-999.0,28,-99.99,,,-99.99,,2013-01-23 17:36:00,
2013-01-23 10:42:00,68.0,32.6,30.22,North,-999,-999.0,-999.0,26,-99.99,,,-99.99,,2013-01-23 17:42:00,
2013-01-23 10:48:00,68.9,32.1,30.23,North,-999,-999.0,-999.0,25,-99.99,,,-99.99,,2013-01-23 17:48:00,
2013-01-23 10:54:00,69.4,31.9,30.23,North,-999,-999.0,-999.0,24,-99.99,,,-99.99,,2013-01-23 17:54:00,
2013-01-23 11:00:00,69.6,31.8,30.22,North,-999,-999.0,-999.0,24,-99.99,,,-99.99,,2013-01-23 18:00:00,
2013-01-23 11:06:00,70.0,32.0,30.22,North,-999,-999.0,-999.0,24,-99.99,,,-99.99,,2013-01-23 18:06:00,
2013-01-23 11:12:00,70.5,32.3,30.22,North,-999,-999.0,-999.0,24,-99.99,,,-99.99,,2013-01-23 18:12:00,
2013-01-23 11:18:00,70.4,32.3,30.21,North,-999,-999.0,-999.0,24,-99.99,,,-99.99,,2013-01-23 18:18:00,
2013-01-23 11:24:00,70.5,32.5,30.21,North,-999,-999.0,-999.0,24,-99.99,,,-99.99,,2013-01-23 18:24:00,
2013-01-23 11:30:00,70.9,32.7,30.21,North,-999,-999.0,-999.0,24,-99.99,,,-99.99,,2013-01-23 18:30:00,
2013-01-23 11:36:00,71.7,33.0,30.20,North,-999,-999.0,-999.0,24,-99.99,,,-99.99,,2013-01-23 18:36:00,
2013-01-23 11:42:00,72.2,32.9,30.20,North,-999,-999.0,-999.0,23,-99.99,,,-99.99,,2013-01-23 18:42:00,
2013-01-23 11:48:00,73.4,32.9,30.20,North,-999,-999.0,-999.0,22,-99.99,,,-99.99,,2013-01-23 18:48:00,
2013-01-23 11:54:00,74.5,32.8,30.20,North,-999,-999.0,-999.0,21,-99.99,,,-99.99,,2013-01-23 18:54:00,
2013-01-23 12:00:00,76.1,33.0,30.19,North,-999,-999.0,-999.0,20,-99.99,,,-99.99,,2013-01-23 19:00:00,
2013-01-23 12:06:00,77.8,33.0,30.19,North,-999,-999.0,-999.0,19,-99.99,,,-99.99,,2013-01-23 19:06:00,
2013-01-23 12:12:00,78.2,33.1,30.18,North,-999,-999.0,-999.0,19,-99.99,,,-99.99,,2013-01-23 19:12:00,
2013-01-23 12:18:00,76.7,32.7,30.18,North,-999,-999.0,-999.0,20,-99.99,,,-99.99,,2013-01-23 19:18:00,
2013-01-23 12:24:00,76.2,32.7,30.18,North,-999,-999.0,-999.0,20,-99.99,,,-99.99,,2013-01-23 19:24:00,
2013-01-23 12:30:00,75.7,32.7,30.17,North,-999,-999.0,-999.0,20,-99.99,,,-99.99,,2013-01-23 19:30:00,
2013-01-23 12:36:00,75.5,32.9,30.18,North,-999,-999.0,-999.0,21,-99.99,,,-99.99,,2013-01-23 19:36:00,
2013-01-23 12:42:00,75.7,33.0,30.18,North,-999,-999.0,-999.0,21,-99.99,,,-99.99,,2013-01-23 19:42:00,
2013-01-23 12:48:00,76.2,33.2,30.17,North,-999,-999.0,-999.0,20,-99.99,,,-99.99,,2013-01-23 19:48:00,
2013-01-23 12:54:00,77.5,33.7,30.18,North,-999,-999.0,-999.0,20,-99.99,,,-99.99,,2013-01-23 19:54:00,
2013-01-23 13:00:00,77.4,33.8,30.17,North,-999,-999.0,-999.0,20,-99.99,,,-99.99,,2013-01-23 20:00:00,
2013-01-23 13:06:00,77.2,33.9,30.17,North,-999,-999.0,-999.0,20,-99.99,,,-99.99,,2013-01-23 20:06:00,
2013-01-23 13:12:00,78.2,34.1,30.17,North,-999,-999.0,-999.0,20,-99.99,,,-99.99,,2013-01-23 20:12:00,
2013-01-23 13:18:00,79.8,34.1,30.16,North,-999,-999.0,-999.0,19,-99.99,,,-99.99,,2013-01-23 20:18:00,
2013-01-23 13:24:00,80.5,34.1,30.16,North,-999,-999.0,-999.0,18,-99.99,,,-99.99,,2013-01-23 20:24:00,
2013-01-23 13:30:00,81.0,34.1,30.16,North,-999,-999.0,-999.0,18,-99.99,,,-99.99,,2013-01-23 20:30:00,
2013-01-23 13:36:00,80.2,33.8,30.15,North,-999,-999.0,-999.0,18,-99.99,,,-99.99,,2013-01-23 20:36:00,
2013-01-23 13:42:00,80.5,33.8,30.15,North,-999,-999.0,-999.0,18,-99.99,,,-99.99,,2013-01-23 20:42:00,
2013-01-23 13:48:00,79.2,33.3,30.15,North,-999,-999.0,-999.0,18,-99.99,,,-99.99,,2013-01-23 20:48:00,
2013-01-23 13:54:00,78.7,33.4,30.15,North,-999,-999.0,-999.0,19,-99.99,,,-99.99,,2013-01-23 20:54:00,
2013-01-23 14:00:00,78.9,33.5,30.15,North,-999,-999.0,-999.0,19,-99.99,,,-99.99,,2013-01-23 21:00:00,
2013-01-23 14:06:00,79.0,33.6,30.13,North,-999,-999.0,-999.0,19,-99.99,,,-99.99,,2013-01-23 21:06:00,
2013-01-23 14:12:00,78.7,33.9,30.15,North,-999,-999.0,-999.0,19,-99.99,,,-99.99,,2013-01-23 21:12:00,
2013-01-23 14:18:00,79.5,34.1,30.15,North,-999,-999.0,-999.0,19,-99.99,,,-99.99,,2013-01-23 21:18:00,
2013-01-23 14:24:00,80.8,34.5,30.15,North,-999,-999.0,-999.0,18,-99.99,,,-99.99,,2013-01-23 21:24:00,
2013-01-23 14:30:00,80.3,34.6,30.14,North,-999,-999.0,-999.0,19,-99.99,,,-99.99,,2013-01-23 21:30:00,
2013-01-23 14:36:00,79.8,34.5,30.14,North,-999,-999.0,-999.0,19,-99.99,,,-99.99,,2013-01-23 21:36:00,
2013-01-23 14:42:00,79.5,34.5,30.13,North,-999,-999.0,-999.0,19,-99.99,,,-99.99,,2013-01-23 21:42:00,
2013-01-23 14:48:00,79.9,35.1,30.15,North,-999,-999.0,-999.0,19,-99.99,,,-99.99,,2013-01-23 21:48:00,
2013-01-23 14:54:00,79.4,35.1,30.14,North,-999,-999.0,-999.0,20,-99.99,,,-99.99,,2013-01-23 21:54:00,
2013-01-23 15:00:00,79.4,35.2,30.15,North,-999,-999.0,-999.0,20,-99.99,,,-99.99,,2013-01-23 22:00:00,
2013-01-23 15:06:00,80.6,35.5,30.15,North,-999,-999.0,-999.0,19,-99.99,,,-99.99,,2013-01-23 22:06:00,
2013-01-23 15:12:00,80.4,35.4,30.13,North,-999,-999.0,-999.0,19,-99.99,,,-99.99,,2013-01-23 22:12:00,
2013-01-23 15:18:00,80.4,35.5,30.12,North,-999,-999.0,-999.0,19,-99.99,,,-99.99,,2013-01-23 22:18:00,
2013-01-23 15:24:00,80.3,35.4,30.13,North,-999,-999.0,-999.0,19,-99.99,,,-99.99,,2013-01-23 22:24:00,
2013-01-23 15:30:00,80.4,35.5,30.12,North,-999,-999.0,-999.0,19,-99.99,,,-99.99,,2013-01-23 22:30:00,
2013-01-23 15:36:00,80.1,35.4,30.13,North,-999,-999.0,-999.0,20,-99.99,,,-99.99,,2013-01-23 22:36:00,
2013-01-23 15:42:00,79.9,35.3,30.12,North,-999,-999.0,-999.0,20,-99.99,,,-99.99,,2013-01-23 22:42:00,
2013-01-23 15:48:00,79.7,35.3,30.13,North,-999,-999.0,-999.0,20,-99.99,,,-99.99,,2013-01-23 22:48:00,
2013-01-23 15:54:00,79.6,35.3,30.13,North,-999,-999.0,-999.0,20,-99.99,,,-99.99,,2013-01-23 22:54:00,
2013-01-23 16:00:00,79.7,35.3,30.13,North,-999,-999.0,-999.0,20,-99.99,,,-99.99,,2013-01-23 23:00:00,
2013-01-23 16:06:00,80.0,35.4,30.12,North,-999,-999.0,-999.0,20,-99.99,,,-99.99,,2013-01-23 23:06:00,
2013-01-23 16:12:00,79.9,35.3,30.12,North,-999,-999.0,-999.0,20,-99.99,,,-99.99,,2013-01-23 23:12:00,
2013-01-23 16:18:00,79.8,35.4,30.12,North,-999,-999.0,-999.0,20,-99.99,,,-99.99,,2013-01-23 23:18:00,
2013-01-23 16:24:00,79.8,35.4,30.12,North,-999,-999.0,-999.0,20,-99.99,,,-99.99,,2013-01-23 23:24:00,
2013-01-23 16:30:00,79.6,35.3,30.11,North,-999,-999.0,-999.0,20,-99.99,,,-99.99,,2013-01-23 23:30:00,
2013-01-23 16:36:00,79.4,35.3,30.12,North,-999,-999.0,-999.0,20,-99.99,,,-99.99,,2013-01-23 23:36:00,
2013-01-23 16:42:00,79.1,35.3,30.12,North,-999,-999.0,-999.0,20,-99.99,,,-99.99,,2013-01-23 23:42:00,
2013-01-23 16:48:00,78.9,35.5,30.12,North,-999,-999.0,-999.0,20,-99.99,,,-99.99,,2013-01-23 23:48:00,
2013-01-23 16:54:00,78.6,35.3,30.12,North,-999,-999.0,-999.0,21,-99.99,,,-99.99,,2013-01-23 23:54:00,
2013-01-23 17:00:00,78.1,35.1,30.12,North,-999,-999.0,-999.0,21,-99.99,,,-99.99,,2013-01-24 00:00:00,
2013-01-23 17:06:00,77.6,35.1,30.12,North,-999,-999.0,-999.0,21,-99.99,,,-99.99,,2013-01-24 00:06:00,
2013-01-23 17:12:00,77.1,35.0,30.12,North,-999,-999.0,-999.0,21,-99.99,,,-99.99,,2013-01-24 00:12:00,
2013-01-23 17:18:00,76.7,35.0,30.11,North,-999,-999.0,-999.0,22,-99.99,,,-99.99,,2013-01-24 00:18:00,
2013-01-23 17:24:00,76.0,35.0,30.11,North,-999,-999.0,-999.0,22,-99.99,,,-99.99,,2013-01-24 00:24:00,
2013-01-23 17:30:00,75.2,35.0,30.11,North,-999,-999.0,-999.0,23,-99.99,,,-99.99,,2013-01-24 00:30:00,
2013-01-23 17:36:00,74.6,35.0,30.12,North,-999,-999.0,-999.0,23,-99.99,,,-99.99,,2013-01-24 00:36:00,
2013-01-23 17:42:00,73.3,34.8,30.12,North,-999,-999.0,-999.0,24,-99.99,,,-99.99,,2013-01-24 00:42:00,
2013-01-23 17:48:00,71.7,34.8,30.12,North,-999,-999.0,-999.0,25,-99.99,,,-99.99,,2013-01-24 00:48:00,
2013-01-23 17:54:00,70.5,34.8,30.12,North,-999,-999.0,-999.0,26,-99.99,,,-99.99,,2013-01-24 00:54:00,
2013-01-23 18:00:00,69.2,34.8,30.12,North,-999,-999.0,-999.0,28,-99.99,,,-99.99,,2013-01-24 01:00:00,
2013-01-23 18:06:00,68.0,34.6,30.12,North,-999,-999.0,-999.0,29,-99.99,,,-99.99,,2013-01-24 01:06:00,
2013-01-23 18:12:00,68.1,34.9,30.12,North,-999,-999.0,-999.0,29,-99.99,,,-99.99,,2013-01-24 01:12:00,
2013-01-23 18:18:00,67.6,35.0,30.12,North,-999,-999.0,-999.0,29,-99.99,,,-99.99,,2013-01-24 01:18:00,
2013-01-23 18:24:00,66.5,34.9,30.12,North,-999,-999.0,-999.0,31,-99.99,,,-99.99,,2013-01-24 01:24:00,
2013-01-23 18:30:00,65.7,34.7,30.13,North,-999,-999.0,-999.0,31,-99.99,,,-99.99,,2013-01-24 01:30:00,
2013-01-23 18:36:00,64.3,34.4,30.12,North,-999,-999.0,-999.0,32,-99.99,,,-99.99,,2013-01-24 01:36:00,
2013-01-23 18:42:00,66.0,34.9,30.13,North,-999,-999.0,-999.0,31,-99.99,,,-99.99,,2013-01-24 01:42:00,
2013-01-23 18:48:00,66.4,34.8,30.13,North,-999,-999.0,-999.0,31,-99.99,,,-99.99,,2013-01-24 01:48:00,
2013-01-23 18:54:00,64.8,34.5,30.12,North,-999,-999.0,-999.0,32,-99.99,,,-99.99,,2013-01-24 01:54:00,
2013-01-23 19:00:00,62.9,34.1,30.12,North,-999,-999.0,-999.0,34,-99.99,,,-99.99,,2013-01-24 02:00:00,
2013-01-23 19:06:00,62.0,33.8,30.13,North,-999,-999.0,-999.0,34,-99.99,,,-99.99,,2013-01-24 02:06:00,
2013-01-23 19:12:00,62.6,33.9,30.13,North,-999,-999.0,-999.0,34,-99.99,,,-99.99,,2013-01-24 02:12:00,
2013-01-23 19:18:00,64.1,34.3,30.13,North,-999,-999.0,-999.0,32,-99.99,,,-99.99,,2013-01-24 02:18:00,
2013-01-23 19:24:00,63.3,34.0,30.12,North,-999,-999.0,-999.0,33,-99.99,,,-99.99,,2013-01-24 02:24:00,
2013-01-23 19:30:00,62.5,34.0,30.13,North,-999,-999.0,-999.0,34,-99.99,,,-99.99,,2013-01-24 02:30:00,
2013-01-23 19:36:00,62.5,33.9,30.14,North,-999,-999.0,-999.0,34,-99.99,,,-99.99,,2013-01-24 02:36:00,
2013-01-23 19:42:00,61.5,33.7,30.14,North,-999,-999.0,-999.0,35,-99.99,,,-99.99,,2013-01-24 02:42:00,
2013-01-23 19:48:00,61.3,33.5,30.14,North,-999,-999.0,-999.0,35,-99.99,,,-99.99,,2013-01-24 02:48:00,
2013-01-23 19:54:00,61.3,33.2,30.14,North,-999,-999.0,-999.0,34,-99.99,,,-99.99,,2013-01-24 02:54:00,
2013-01-23 20:00:00,61.0,33.2,30.14,North,-999,-999.0,-999.0,35,-99.99,,,-99.99,,2013-01-24 03:00:00,
2013-01-23 20:06:00,60.8,33.2,30.13,North,-999,-999.0,-999.0,35,-99.99,,,-99.99,,2013-01-24 03:06:00,
2013-01-23 20:12:00,60.7,33.0,30.14,North,-999,-999.0,-999.0,35,-99.99,,,-99.99,,2013-01-24 03:12:00,
2013-01-23 20:18:00,60.0,32.9,30.14,North,-999,-999.0,-999.0,35,-99.99,,,-99.99,,2013-01-24 03:18:00,
2013-01-23 20:24:00,59.8,32.9,30.14,North,-999,-999.0,-999.0,36,-99.99,,,-99.99,,2013-01-24 03:24:00,
2013-01-23 20:30:00,59.8,32.9,30.14,North,-999,-999.0,-999.0,36,-99.99,,,-99.99,,2013-01-24 03:30:00,
2013-01-23 20:36:00,58.2,32.5,30.14,North,-999,-999.0,-999.0,37,-99.99,,,-99.99,,2013-01-24 03:36:00,
2013-01-23 20:42:00,58.3,32.7,30.14,North,-999,-999.0,-999.0,37,-99.99,,,-99.99,,2013-01-24 03:42:00,
2013-01-23 20:48:00,58.4,32.7,30.15,North,-999,-999.0,-999.0,37,-99.99,,,-99.99,,2013-01-24 03:48:00,
2013-01-23 20:54:00,57.4,32.5,30.15,North,-999,-999.0,-999.0,38,-99.99,,,-99.99,,2013-01-24 03:54:00,
2013-01-23 21:00:00,56.7,32.3,30.15,North,-999,-999.0,-999.0,39,-99.99,,,-99.99,,2013-01-24 04:00:00,
2013-01-23 21:06:00,56.5,32.5,30.15,North,-999,-999.0,-999.0,40,-99.99,,,-99.99,,2013-01-24 04:06:00,
2013-01-23 21:12:00,55.4,32.3,30.16,North,-999,-999.0,-999.0,41,-99.99,,,-99.99,,2013-01-24 04:12:00,
2013-01-23 21:18:00,55.0,32.4,30.16,North,-999,-999.0,-999.0,42,-99.99,,,-99.99,,2013-01-24 04:18:00,
2013-01-23 21:24:00,55.0,32.8,30.16,North,-999,-999.0,-999.0,42,-99.99,,,-99.99,,2013-01-24 04:24:00,
2013-01-23 21:30:00,55.7,33.0,30.16,North,-999,-999.0,-999.0,42,-99.99,,,-99.99,,2013-01-24 04:30:00,
2013-01-23 21:36:00,55.9,33.2,30.16,North,-999,-999.0,-999.0,42,-99.99,,,-99.99,,2013-01-24 04:36:00,
2013-01-23 21:42:00,56.1,33.2,30.17,North,-999,-999.0,-999.0,41,-99.99,,,-99.99,,2013-01-24 04:42:00,
2013-01-23 21:48:00,56.3,33.1,30.17,North,-999,-999.0,-999.0,41,-99.99,,,-99.99,,2013-01-24 04:48:00,
2013-01-23 21:54:00,56.4,33.3,30.17,North,-999,-999.0,-999.0,41,-99.99,,,-99.99,,2013-01-24 04:54:00,
2013-01-23 22:06:00,57.2,33.6,30.18,North,-999,-999.0,-999.0,40,-99.99,,,-99.99,,2013-01-24 05:06:00,
2013-01-23 22:12:00,56.5,33.4,30.17,North,-999,-999.0,-999.0,41,-99.99,,,-99.99,,2013-01-24 05:12:00,
2013-01-23 22:18:00,56.4,33.4,30.17,North,-999,-999.0,-999.0,41,-99.99,,,-99.99,,2013-01-24 05:18:00,
2013-01-23 22:24:00,56.5,33.4,30.17,North,-999,-999.0,-999.0,41,-99.99,,,-99.99,,2013-01-24 05:24:00,
2013-01-23 22:30:00,57.0,33.7,30.17,North,-999,-999.0,-999.0,41,-99.99,,,-99.99,,2013-01-24 05:30:00,
2013-01-23 22:36:00,56.4,33.6,30.18,North,-999,-999.0,-999.0,42,-99.99,,,-99.99,,2013-01-24 05:36:00,
2013-01-23 22:42:00,56.9,33.8,30.18,North,-999,-999.0,-999.0,41,-99.99,,,-99.99,,2013-01-24 05:42:00,
2013-01-23 22:48:00,56.8,33.7,30.18,North,-999,-999.0,-999.0,41,-99.99,,,-99.99,,2013-01-24 05:48:00,
2013-01-23 22:54:00,56.7,33.6,30.18,North,-999,-999.0,-999.0,41,-99.99,,,-99.99,,2013-01-24 05:54:00,
2013-01-23 23:00:00,56.6,33.6,30.17,North,-999,-999.0,-999.0,41,-99.99,,,-99.99,,2013-01-24 06:00:00,
2013-01-23 23:06:00,56.4,33.6,30.18,North,-999,-999.0,-999.0,42,-99.99,,,-99.99,,2013-01-24 06:06:00,
2013-01-23 23:12:00,55.4,33.4,30.19,North,-999,-999.0,-999.0,43,-99.99,,,-99.99,,2013-01-24 06:12:00,
2013-01-23 23:18:00,55.2,33.5,30.18,North,-999,-999.0,-999.0,43,-99.99,,,-99.99,,2013-01-24 06:18:00,
2013-01-23 23:24:00,55.4,33.6,30.19,North,-999,-999.0,-999.0,43,-99.99,,,-99.99,,2013-01-24 06:24:00,
2013-01-23 23:30:00,54.5,33.4,30.19,North,-999,-999.0,-999.0,44,-99.99,,,-99.99,,2013-01-24 06:30:00,
2013-01-23 23:36:00,54.2,33.3,30.18,North,-999,-999.0,-999.0,45,-99.99,,,-99.99,,2013-01-24 06:36:00,
2013-01-23 23:42:00,54.3,33.3,30.19,North,-999,-999.0,-999.0,44,-99.99,,,-99.99,,2013-01-24 06:42:00,
2013-01-23 23:48:00,55.4,33.4,30.19,North,-999,-999.0,-999.0,43,-99.99,,,-99.99,,2013-01-24 06:48:00,
2013-01-23 23:54:00,56.1,33.3,30.20,North,-999,-999.0,-999.0,42,-99.99,,,-99.99,,2013-01-24 06:54:00,